This is the latest recevied weather packets stored in our database for station/object KE8WMS. If no packets are shown the sender has not sent any weather packets the latest 10 day(s).
| Time | Temp. | Humidity | Pressure | Rain* | Wind** | Luminosity | Snow |
|---|---|---|---|---|---|---|---|
| 1787439864 | 16.67° C | 99% | 1004.5 hPa | 0 mm | - | 54 W/m² | - |
| 1787439559 | 16.67° C | 99% | 1004.3 hPa | 0 mm | - | 59 W/m² | - |
| 1787439256 | 16.67° C | 99% | 1004.5 hPa | 0 mm | - | 44 W/m² | - |
| 1787438952 | 16.67° C | 99% | 1004 hPa | 0 mm | - | 42 W/m² | - |
| 1787438652 | 16.67° C | 99% | 1003.9 hPa | 0 mm | - | 38 W/m² | - |
| 1787438351 | 16.67° C | 99% | 1003.9 hPa | 0 mm | - | 62 W/m² | - |
| 1787438050 | 16.67° C | 99% | 1004.3 hPa | 0 mm | - | 62 W/m² | - |
| 1787437746 | 16.67° C | 99% | 1004.5 hPa | 0 mm | - | 68 W/m² | - |
| 1787437443 | 16.11° C | 99% | 1005.1 hPa | 1.78 mm | - | 50 W/m² | - |
| 1787437139 | 16.11° C | 99% | 1005 hPa | 1.78 mm | - | 36 W/m² | - |
| 1787436835 | 16.11° C | 99% | 1005 hPa | 1.27 mm | - | 22 W/m² | - |
| 1787436532 | 16.11° C | 99% | 1005 hPa | 1.27 mm | - | 18 W/m² | - |
| 1787436230 | 15.56° C | 99% | 1005.4 hPa | 1.27 mm | - | 18 W/m² | - |
| 1787435930 | 15.56° C | 99% | 1005.3 hPa | 4.83 mm | - | 11 W/m² | - |
| 1787435627 | 15.56° C | 99% | 1005.2 hPa | 9.65 mm | - | 11 W/m² | - |
| 1787435323 | 15.56° C | 99% | 1005.8 hPa | 8.89 mm | - | 17 W/m² | - |
| 1787435019 | 15° C | 99% | 1005.9 hPa | 4.32 mm | - | 21 W/m² | - |
| 1787434715 | 15° C | 98% | 1006.2 hPa | 0 mm | - | 25 W/m² | - |
| 1787434411 | 15° C | 98% | 1005.8 hPa | 22.86 mm | - | 26 W/m² | - |
| 1787434106 | 14.44° C | 97% | 1005.4 hPa | 71.88 mm | - | 33 W/m² | - |
| 1787433801 | 15° C | 95% | 1005.9 hPa | 71.88 mm | - | 23 W/m² | - |
| 1787433497 | 21.67° C | 88% | 1006.2 hPa | 8.89 mm | - | 6 W/m² | - |
| 1787433193 | 23.89° C | 84% | 1004.9 hPa | 0 mm | - | 5 W/m² | - |
| 1787432889 | 23.89° C | 85% | 1003.9 hPa | 0 mm | - | 25 W/m² | - |
| 1787432584 | 23.89° C | 84% | 1004.6 hPa | 0 mm | - | 64 W/m² | - |
* Rain latest hour (hover to see other rain measurements)
** Current wind speed in m/s (hover to see current wind gust speed)